Weather at Paris-Orly Airport

Public forecast

Using degrees Celsius for public forecast. Weather courtesy of forecast.io.

Current aviation weather report (METAR) for Paris-Orly Airport

Retrieved 2020/09/24 07:30 UTC (2 minutes ago):

LFPO 240730Z 20005KT 160V220 CAVOK 12/10 Q1006 NOSIG

Aviation forecast (TAF) for Paris-Orly Airport

Retrieved 2020/09/24 06:21 UTC (1 hour ago):

TAF LFPO 240500Z 2406/2512 22010KT CAVOK PROB30 TEMPO 2406/2408 BKN008 BECMG 2408/2410 BKN035 TEMPO 2411/2418 20015G25KT 4000 SHRA BKN025 SCT030CB PROB40 TEMPO 2412/2419 20020G30KT PROB30 TEMPO 2414/2418 2500 -TSRA BKN020CB TEMPO 2506/2512 28018G32KT 4000 SHRA BKN020 SCT025CB